Time;durP1;ratioP1;P1;durP2;ratioP2;P2;SDS_P1;SDS_P2;PMS_P1;PMS_P2;Temp;Humidity;BMP_temperature;BMP_pressure;BME280_temperature;BME280_humidity;BME280_pressure;Samples;Min_cycle;Max_cycle;Signal;HPM_P1;HPM_P2
2021/01/18 00:00:52;;;;;;;20.52;8.30;;;3.20;1.00;;;;;;5054198;28;20505;-75
2021/01/18 00:03:22;;;;;;;16.08;7.75;;;3.20;1.00;;;;;;5054162;28;20156;-75
2021/01/18 00:09:10;;;;;;;15.88;7.15;;;3.20;1.00;;;;;;5035897;28;20195;-76
2021/01/18 00:12:15;;;;;;;16.37;7.40;;;3.20;1.00;;;;;;5047122;28;20168;-75
2021/01/18 00:18:03;;;;;;;17.98;6.97;;;3.20;1.00;;;;;;5033823;28;20686;-78
2021/01/18 00:21:09;;;;;;;14.37;6.57;;;3.20;1.00;;;;;;5034257;28;20156;-76
2021/01/18 00:24:03;;;;;;;18.92;8.23;;;3.20;1.00;;;;;;5033919;28;20199;-75
2021/01/18 00:26:30;;;;;;;16.90;7.07;;;;;;;;;;5032316;28;20165;-76
2021/01/18 00:29:33;;;;;;;17.17;8.00;;;3.20;1.00;;;;;;5033877;28;20160;-78
2021/01/18 00:31:59;;;;;;;15.52;6.85;;;3.10;1.00;;;;;;5032715;28;20183;-78
2021/01/18 00:37:52;;;;;;;10.55;6.30;;;3.10;1.00;;;;;;5037596;28;20218;-78
2021/01/18 00:40:23;;;;;;;13.68;6.50;;;3.10;1.00;;;;;;5045319;28;20186;-78
2021/01/18 00:43:16;;;;;;;14.40;6.30;;;3.20;1.00;;;;;;5050283;28;20173;-78
2021/01/18 00:45:41;;;;;;;15.07;6.38;;;3.10;1.00;;;;;;5048908;28;20661;-79
2021/01/18 00:48:27;;;;;;;16.53;7.23;;;3.10;1.00;;;;;;5056943;28;20188;-78
2021/01/18 00:58:15;;;;;;;13.77;6.35;;;3.10;1.00;;;;;;5042817;28;20297;-78
2021/01/18 01:04:03;;;;;;;14.35;6.80;;;3.20;1.00;;;;;;5037105;28;20192;-75
2021/01/18 01:06:34;;;;;;;14.23;7.27;;;3.20;1.00;;;;;;5037163;28;20161;-76
2021/01/18 01:09:22;;;;;;;13.07;5.82;;;3.20;1.00;;;;;;5037204;28;20156;-75
2021/01/18 01:11:52;;;;;;;20.38;6.53;;;3.20;1.00;;;;;;5037074;28;20686;-76
2021/01/18 01:14:40;;;;;;;13.38;5.63;;;3.20;1.00;;;;;;5037483;28;20165;-75
2021/01/18 01:17:16;;;;;;;13.80;5.88;;;3.20;1.00;;;;;;5048398;28;20184;-75
2021/01/18 01:19:52;;;;;;;15.40;5.70;;;3.20;1.00;;;;;;5052270;28;20226;-75
2021/01/18 01:22:28;;;;;;;12.25;5.22;;;3.30;1.00;;;;;;5037028;28;20175;-75
2021/01/18 01:25:33;;;;;;;15.50;5.65;;;3.30;1.00;;;;;;5036777;28;20695;-75
2021/01/18 01:28:39;;;;;;;17.55;7.53;;;3.30;1.00;;;;;;5036988;28;20189;-78
2021/01/18 01:31:10;;;;;;;8.80;4.57;;;3.30;1.00;;;;;;5036629;28;20167;-75
2021/01/18 01:33:46;;;;;;;11.45;5.57;;;3.40;1.00;;;;;;5036849;28;20183;-75
2021/01/18 01:36:12;;;;;;;10.35;6.45;;;3.40;1.00;;;;;;5036669;28;20176;-75
2021/01/18 01:38:46;;;;;;;14.07;6.03;;;3.40;1.00;;;;;;5036472;28;20164;-75
2021/01/18 01:41:16;;;;;;;14.20;6.65;;;3.40;1.00;;;;;;5036448;28;20168;-75
2021/01/18 01:43:42;;;;;;;11.82;6.50;;;3.50;1.00;;;;;;5051966;28;20179;-75
2021/01/18 01:46:10;;;;;;;23.00;6.80;;;3.50;1.00;;;;;;5049254;28;20179;-76
2021/01/18 01:48:52;;;;;;;10.73;5.45;;;3.50;1.00;;;;;;5055888;28;20183;-78
2021/01/18 01:54:42;;;;;;;12.30;5.88;;;3.50;1.00;;;;;;5035947;28;20255;-78
2021/01/18 02:00:47;;;;;;;12.68;5.28;;;3.40;1.00;;;;;;5056321;28;20186;-78
2021/01/18 02:06:40;;;;;;;16.40;5.50;;;3.40;1.00;;;;;;5052193;28;20264;-75
2021/01/18 02:09:58;;;;;;;8.52;5.00;;;3.30;1.00;;;;;;5055591;28;20530;-76
2021/01/18 02:12:52;;;;;;;9.85;5.15;;;3.40;1.00;;;;;;5037220;28;20169;-78
2021/01/18 02:15:57;;;;;;;14.40;5.72;;;3.40;1.00;;;;;;5036474;28;20211;-75
2021/01/18 02:19:09;;;;;;;11.30;4.90;;;3.40;1.00;;;;;;5047106;28;20191;-75
2021/01/18 02:22:08;;;;;;;8.95;5.10;;;3.40;1.00;;;;;;5033506;28;20165;-75
2021/01/18 02:25:21;;;;;;;14.43;5.40;;;3.40;1.00;;;;;;5029616;28;20173;-76
2021/01/18 02:28:17;;;;;;;7.70;4.75;;;3.40;1.00;;;;;;5031937;28;20199;-75
2021/01/18 02:31:28;;;;;;;11.15;5.00;;;3.40;1.00;;;;;;5033867;28;20180;-75
2021/01/18 02:34:34;;;;;;;8.35;4.90;;;3.40;1.00;;;;;;5013832;28;20171;-75
2021/01/18 02:37:27;;;;;;;10.90;5.18;;;3.40;1.00;;;;;;5013529;28;20286;-75
2021/01/18 02:50:01;;;;;;;10.13;5.10;;;3.30;1.00;;;;;;5031172;28;20187;-76
2021/01/18 02:52:27;;;;;;;18.02;6.85;;;3.30;1.00;;;;;;5033424;28;20247;-76
2021/01/18 02:55:45;;;;;;;7.80;4.63;;;3.30;1.00;;;;;;5024276;28;20267;-78
2021/01/18 02:58:21;;;;;;;20.92;5.68;;;3.30;1.00;;;;;;5033334;28;20772;-75
2021/01/18 03:01:07;;;;;;;11.73;5.43;;;3.30;1.00;;;;;;5053997;28;20190;-75
2021/01/18 03:03:59;;;;;;;15.55;6.43;;;3.30;1.00;;;;;;5054925;28;20167;-75
2021/01/18 03:06:47;;;;;;;11.57;4.88;;;3.30;1.00;;;;;;5054809;28;20633;-75
2021/01/18 03:10:09;;;;;;;12.00;5.47;;;3.30;1.00;;;;;;5049968;28;20176;-75
2021/01/18 03:12:51;;;;;;;11.32;5.32;;;3.20;1.00;;;;;;5032784;28;20255;-75
2021/01/18 03:15:20;;;;;;;19.80;6.47;;;3.30;1.00;;;;;;5030827;28;20254;-76
2021/01/18 03:18:40;;;;;;;11.75;5.32;;;3.30;1.00;;;;;;5032679;28;20188;-75
2021/01/18 03:21:18;;;;;;;14.55;5.18;;;3.30;1.00;;;;;;5032551;28;20271;-75
2021/01/18 03:23:44;;;;;;;12.48;4.90;;;3.30;1.00;;;;;;5016780;28;20193;-75
2021/01/18 03:29:34;;;;;;;9.60;5.40;;;3.20;1.00;;;;;;5030180;28;20326;-76
2021/01/18 03:32:00;;;;;;;9.65;5.10;;;3.30;1.00;;;;;;5012738;28;20197;-75
2021/01/18 03:34:40;;;;;;;12.53;5.90;;;3.30;1.00;;;;;;4996568;28;20267;-78
2021/01/18 03:40:34;;;;;;;11.95;4.63;;;3.20;1.00;;;;;;5012651;28;20569;-75
2021/01/18 03:43:05;;;;;;;11.93;4.65;;;3.10;1.00;;;;;;5020040;28;20176;-75
2021/01/18 03:48:52;;;;;;;12.70;5.15;;;3.10;1.00;;;;;;5054131;28;20229;-78
2021/01/18 03:51:29;;;;;;;12.57;5.80;;;3.10;1.00;;;;;;5053850;28;20180;-78
2021/01/18 03:53:58;;;;;;;17.27;5.93;;;3.20;1.00;;;;;;5039967;28;20164;-75
2021/01/18 03:59:48;;;;;;;10.07;4.93;;;3.10;1.00;;;;;;5033801;28;20195;-75
2021/01/18 04:02:14;;;;;;;12.43;4.38;;;3.10;1.00;;;;;;5034487;28;20168;-75
2021/01/18 04:04:52;;;;;;;12.93;5.57;;;3.10;1.00;;;;;;5034085;28;20668;-75
2021/01/18 04:07:22;;;;;;;13.75;5.35;;;3.10;1.00;;;;;;5041781;28;20661;-78
2021/01/18 04:09:58;;;;;;;11.35;5.18;;;3.00;1.00;;;;;;5050054;28;20974;-75
2021/01/18 04:13:10;;;;;;;12.15;5.60;;;3.10;1.00;;;;;;5034102;28;20160;-79
2021/01/18 04:15:35;;;;;;;7.63;4.68;;;3.00;1.00;;;;;;5034092;28;20618;-78
2021/01/18 04:21:23;;;;;;;9.95;3.88;;;2.90;1.00;;;;;;5033308;28;20743;-75
2021/01/18 04:23:49;;;;;;;10.50;4.83;;;2.90;1.00;;;;;;5033663;28;20247;-75
2021/01/18 04:26:14;;;;;;;11.87;5.47;;;2.90;1.00;;;;;;5033896;28;20161;-75
2021/01/18 04:35:25;;;;;;;8.77;4.45;;;2.70;1.00;;;;;;5053517;28;20175;-76
2021/01/18 04:38:46;;;;;;;11.57;4.43;;;2.70;1.00;;;;;;5047693;28;20171;-79
2021/01/18 04:41:16;;;;;;;9.68;4.03;;;2.70;1.00;;;;;;5033428;28;20176;-79
2021/01/18 04:43:46;;;;;;;9.85;4.68;;;2.70;1.00;;;;;;5032882;28;20208;-75
2021/01/18 04:46:16;;;;;;;9.23;4.55;;;2.60;1.00;;;;;;5033811;28;20164;-75
2021/01/18 04:49:04;;;;;;;7.43;4.10;;;2.60;1.00;;;;;;5041346;28;20534;-75
2021/01/18 04:51:39;;;;;;;5.50;3.70;;;2.60;1.00;;;;;;5053343;28;20160;-75
2021/01/18 04:54:21;;;;;;;9.23;3.83;;;2.60;1.00;;;;;;5053454;28;20615;-75
2021/01/18 04:57:14;;;;;;;13.73;4.10;;;2.60;1.00;;;;;;5034854;28;20528;-76
2021/01/18 04:59:55;;;;;;;9.98;4.47;;;2.70;1.00;;;;;;5036068;28;20179;-75
2021/01/18 05:03:04;;;;;;;9.70;3.88;;;2.70;1.00;;;;;;5046147;28;20165;-79
2021/01/18 05:09:12;;;;;;;6.80;3.38;;;2.80;1.00;;;;;;5051440;28;20257;-76
2021/01/18 05:15:39;;;;;;;8.77;4.47;;;2.80;1.00;;;;;;5052932;28;20183;-79
2021/01/18 05:18:11;;;;;;;6.47;2.92;;;2.80;1.00;;;;;;5053296;28;20168;-80
2021/01/18 05:23:58;;;;;;;10.23;4.13;;;2.90;1.00;;;;;;5056729;28;20207;-81
2021/01/18 05:26:26;;;;;;;6.93;4.37;;;2.90;1.00;;;;;;5056607;28;20164;-76
2021/01/18 05:32:22;;;;;;;6.65;3.67;;;2.90;1.00;;;;;;5056957;28;20183;-75
2021/01/18 05:35:10;;;;;;;14.90;3.97;;;2.80;1.00;;;;;;5056671;28;20156;-75
2021/01/18 05:38:10;;;;;;;10.07;4.10;;;2.80;1.00;;;;;;5036556;28;20176;-75
2021/01/18 05:40:48;;;;;;;6.57;3.83;;;2.70;1.00;;;;;;5014371;28;20196;-77
2021/01/18 05:43:18;;;;;;;8.25;3.70;;;2.70;1.00;;;;;;5021113;28;20782;-75
2021/01/18 05:45:47;;;;;;;7.15;3.50;;;2.60;1.00;;;;;;5021486;28;20207;-78
2021/01/18 05:51:41;;;;;;;11.50;3.97;;;2.60;1.00;;;;;;5025864;28;20211;-75
2021/01/18 05:57:28;;;;;;;5.95;2.72;;;2.70;1.00;;;;;;5033042;28;20199;-75
2021/01/18 06:00:03;;;;;;;3.83;2.73;;;2.60;1.00;;;;;;5030904;28;20192;-77
2021/01/18 06:02:46;;;;;;;7.00;3.35;;;2.70;1.00;;;;;;5034959;28;20425;-81
2021/01/18 06:05:52;;;;;;;7.55;3.30;;;2.70;1.00;;;;;;5030428;28;20188;-80
2021/01/18 06:08:19;;;;;;;5.75;3.10;;;2.70;1.00;;;;;;5013911;28;20204;-79
2021/01/18 06:21:28;;;;;;;5.30;2.78;;;3.00;1.00;;;;;;5043336;28;20224;-79
2021/01/18 06:24:15;;;;;;;3.13;2.35;;;3.00;1.00;;;;;;5035480;28;20230;-79
2021/01/18 06:30:04;;;;;;;6.90;3.35;;;3.10;1.00;;;;;;5040824;28;20273;-79
2021/01/18 06:32:34;;;;;;;3.85;3.28;;;3.10;1.00;;;;;;5046925;28;20318;-75
2021/01/18 06:35:05;;;;;;;8.90;2.80;;;3.10;1.00;;;;;;5054801;28;20633;-76
2021/01/18 06:37:32;;;;;;;7.13;2.78;;;3.10;1.00;;;;;;5041598;28;20181;-75
2021/01/18 06:40:05;;;;;;;5.95;3.10;;;3.10;1.00;;;;;;5040248;28;20211;-76
2021/01/18 06:42:52;;;;;;;5.00;2.67;;;3.20;1.00;;;;;;5043098;28;20172;-76
2021/01/18 06:46:10;;;;;;;7.10;2.80;;;3.20;1.00;;;;;;5035104;28;20172;-79
2021/01/18 06:48:36;;;;;;;5.07;2.97;;;;;;;;;;5035037;28;20271;-79
2021/01/18 06:51:02;;;;;;;7.10;2.83;;;;;;;;;;5051538;28;20178;-79
2021/01/18 06:53:34;;;;;;;3.08;2.22;;;3.10;1.00;;;;;;5054054;28;20166;-79
2021/01/18 06:56:22;;;;;;;3.03;2.47;;;3.20;1.00;;;;;;5054290;28;20174;-76
2021/01/18 06:59:04;;;;;;;7.45;2.90;;;3.20;1.00;;;;;;5053851;28;20213;-76
2021/01/18 07:01:42;;;;;;;11.38;3.58;;;3.20;1.00;;;;;;5054071;28;20623;-79
2021/01/18 07:04:10;;;;;;;6.07;3.33;;;3.20;1.00;;;;;;5052830;28;20258;-79
2021/01/18 07:06:48;;;;;;;3.97;2.70;;;3.20;1.00;;;;;;5053802;28;20172;-80
2021/01/18 07:09:21;;;;;;;7.95;3.45;;;3.30;1.00;;;;;;5053689;28;20167;-76
2021/01/18 07:12:00;;;;;;;7.32;3.88;;;3.30;1.00;;;;;;5041299;28;20172;-76
2021/01/18 07:14:30;;;;;;;3.38;2.15;;;3.30;1.00;;;;;;5038543;28;20163;-79
2021/01/18 07:17:03;;;;;;;7.40;2.55;;;3.20;1.00;;;;;;5052719;28;20611;-75
2021/01/18 07:19:58;;;;;;;3.35;2.47;;;3.40;1.00;;;;;;5053723;28;20160;-76
2021/01/18 07:22:37;;;;;;;9.32;2.92;;;3.40;1.00;;;;;;5053674;28;20163;-79
2021/01/18 07:25:04;;;;;;;2.22;1.83;;;;;;;;;;5053292;28;20271;-76
2021/01/18 07:27:51;;;;;;;8.18;2.60;;;3.40;1.00;;;;;;5053240;28;20730;-76
2021/01/18 07:30:18;;;;;;;8.10;2.72;;;3.40;1.00;;;;;;5037465;28;20191;-75
2021/01/18 07:32:44;;;;;;;2.90;2.17;;;3.40;1.00;;;;;;5041976;28;20180;-76
2021/01/18 07:35:12;;;;;;;3.40;2.30;;;3.40;1.00;;;;;;5053182;28;20160;-75
2021/01/18 07:37:38;;;;;;;3.70;2.20;;;;;;;;;;5052788;28;20180;-79
2021/01/18 07:40:13;;;;;;;18.50;4.93;;;3.40;1.00;;;;;;5047850;28;20249;-79
2021/01/18 07:42:41;;;;;;;4.63;2.33;;;3.50;1.00;;;;;;5049568;28;20184;-76
2021/01/18 07:45:17;;;;;;;6.18;2.35;;;3.50;1.00;;;;;;5052870;28;20160;-79
2021/01/18 07:48:00;;;;;;;7.30;2.40;;;3.50;1.00;;;;;;5053217;28;20190;-75
2021/01/18 07:50:30;;;;;;;6.68;2.00;;;3.60;1.00;;;;;;5053250;28;20148;-79
2021/01/18 07:53:05;;;;;;;3.58;2.28;;;3.60;1.00;;;;;;5051804;28;20179;-76
2021/01/18 07:55:31;;;;;;;4.95;2.80;;;;;;;;;;5053053;28;20687;-79
2021/01/18 07:58:19;;;;;;;2.50;1.90;;;3.70;1.00;;;;;;5052952;28;20172;-79
2021/01/18 08:00:46;;;;;;;9.98;2.33;;;;;;;;;;5052798;28;20190;-76
2021/01/18 08:03:12;;;;;;;2.50;2.30;;;;;;;;;;5053295;28;20226;-75
2021/01/18 08:05:42;;;;;;;3.60;2.47;;;3.90;1.00;;;;;;5052732;28;20529;-75
2021/01/18 08:08:11;;;;;;;5.85;2.50;;;;;;;;;;5053196;28;20449;-76
2021/01/18 08:10:54;;;;;;;4.07;2.60;;;4.00;1.00;;;;;;5044953;28;20482;-75
2021/01/18 08:13:30;;;;;;;1.85;1.75;;;4.00;1.00;;;;;;5043506;28;20255;-75
2021/01/18 08:15:57;;;;;;;5.63;2.10;;;;;;;;;;5052728;28;20198;-76
2021/01/18 08:18:29;;;;;;;4.35;2.38;;;4.10;1.00;;;;;;5052998;28;20630;-79
2021/01/18 08:20:55;;;;;;;2.97;1.75;;;;;;;;;;5052897;28;20160;-79
2021/01/18 08:23:40;;;;;;;3.45;2.35;;;4.10;1.00;;;;;;5052843;28;20519;-79
2021/01/18 08:26:06;;;;;;;3.42;1.67;;;4.10;1.00;;;;;;5052403;28;20612;-79
2021/01/18 08:28:34;;;;;;;5.72;2.15;;;4.10;1.00;;;;;;5052526;28;20191;-79
2021/01/18 08:31:00;;;;;;;5.13;2.85;;;;;;;;;;5049972;28;20156;-79
2021/01/18 08:33:26;;;;;;;5.10;2.30;;;;;;;;;;5033952;28;20188;-76
2021/01/18 08:35:55;;;;;;;8.50;2.88;;;4.10;1.00;;;;;;5032549;28;20384;-75
2021/01/18 08:38:21;;;;;;;2.78;2.38;;;;;;;;;;5048291;28;20183;-76
2021/01/18 08:40:49;;;;;;;3.20;2.10;;;4.00;1.00;;;;;;5052611;28;20160;-79
2021/01/18 08:43:16;;;;;;;3.90;2.40;;;4.00;1.00;;;;;;5046161;28;20431;-76
2021/01/18 08:45:47;;;;;;;3.28;2.25;;;3.90;1.00;;;;;;5032682;28;20238;-79
2021/01/18 08:48:18;;;;;;;3.25;1.80;;;3.90;1.00;;;;;;5032991;28;20188;-79
2021/01/18 08:50:47;;;;;;;2.92;1.85;;;3.90;1.00;;;;;;5032556;28;20157;-79
2021/01/18 08:53:23;;;;;;;4.80;2.95;;;3.90;1.00;;;;;;5032606;28;20627;-79
2021/01/18 08:56:02;;;;;;;6.28;2.70;;;3.90;1.00;;;;;;5031646;28;20183;-79
2021/01/18 08:58:33;;;;;;;1.60;1.50;;;4.00;1.00;;;;;;5036538;28;20525;-79
2021/01/18 09:01:00;;;;;;;2.97;2.22;;;4.00;1.00;;;;;;5036865;28;20176;-79
2021/01/18 09:03:26;;;;;;;4.22;2.53;;;;;;;;;;5051290;28;20267;-78
2021/01/18 09:05:57;;;;;;;5.13;2.00;;;4.00;1.00;;;;;;5056216;28;20174;-79
2021/01/18 09:08:24;;;;;;;5.88;3.20;;;4.00;1.00;;;;;;5056104;28;20319;-76
2021/01/18 09:11:05;;;;;;;6.35;2.38;;;4.00;1.00;;;;;;5054653;28;20190;-79
2021/01/18 09:13:33;;;;;;;2.85;2.38;;;4.00;1.00;;;;;;5044617;28;20161;-75
2021/01/18 09:19:20;;;;;;;3.33;1.95;;;4.10;1.00;;;;;;5037120;28;20221;-79
2021/01/18 09:25:09;;;;;;;3.20;2.05;;;4.30;1.00;;;;;;5036096;28;20250;-78
2021/01/18 09:27:36;;;;;;;7.43;2.45;;;4.30;1.00;;;;;;5054404;28;20239;-79
2021/01/18 09:30:05;;;;;;;5.60;1.95;;;4.40;1.00;;;;;;5041166;28;20172;-79
2021/01/18 09:32:31;;;;;;;8.73;3.28;;;4.50;1.00;;;;;;5044986;28;20204;-75
2021/01/18 09:35:14;;;;;;;5.50;3.23;;;4.50;1.00;;;;;;5035984;28;20219;-79
2021/01/18 09:37:44;;;;;;;6.00;2.67;;;4.70;1.00;;;;;;5040593;28;20176;-76
2021/01/18 09:40:10;;;;;;;3.55;2.40;;;4.70;1.00;;;;;;5040809;28;20180;-75
2021/01/18 09:42:37;;;;;;;5.65;3.20;;;4.80;1.00;;;;;;5042227;28;20196;-75
2021/01/18 09:45:09;;;;;;;7.05;2.75;;;4.90;1.00;;;;;;5045133;28;20656;-76
2021/01/18 09:47:35;;;;;;;10.13;3.40;;;;;;;;;;5037511;28;20560;-75
2021/01/18 09:50:13;;;;;;;3.70;2.75;;;5.20;1.00;;;;;;5051620;28;20274;-79
2021/01/18 09:52:42;;;;;;;5.80;3.35;;;5.20;1.00;;;;;;5054218;28;20172;-79
2021/01/18 09:55:10;;;;;;;3.20;2.55;;;5.30;1.00;;;;;;5055284;28;20159;-79
2021/01/18 09:57:38;;;;;;;4.18;2.55;;;5.40;1.00;;;;;;5055240;28;20654;-79
2021/01/18 10:00:05;;;;;;;3.60;2.43;;;5.50;1.00;;;;;;5049785;28;20180;-79
2021/01/18 10:02:39;;;;;;;9.18;2.50;;;5.50;1.00;;;;;;5041461;28;20917;-79
2021/01/18 10:05:06;;;;;;;5.32;3.05;;;5.40;1.00;;;;;;5034277;28;20180;-79
2021/01/18 10:07:33;;;;;;;2.72;2.40;;;5.40;1.00;;;;;;5032602;28;20249;-79
2021/01/18 10:10:01;;;;;;;13.07;3.20;;;5.50;1.00;;;;;;5035079;28;20161;-76
2021/01/18 10:12:32;;;;;;;7.53;3.30;;;5.60;1.00;;;;;;5036772;28;20164;-76
2021/01/18 10:14:59;;;;;;;6.22;3.30;;;5.60;1.00;;;;;;5042382;28;20613;-76
2021/01/18 10:17:31;;;;;;;6.47;2.90;;;5.60;1.00;;;;;;5054370;28;20183;-76
2021/01/18 10:20:05;;;;;;;4.35;2.72;;;5.60;1.00;;;;;;5043902;28;20188;-78
2021/01/18 10:22:36;;;;;;;3.80;2.90;;;5.60;1.00;;;;;;5037637;28;20233;-80
2021/01/18 10:25:10;;;;;;;7.03;2.38;;;5.50;1.00;;;;;;5034792;28;20184;-79
2021/01/18 10:27:37;;;;;;;3.95;2.65;;;;;;;;;;5050480;28;20674;-81
2021/01/18 10:30:20;;;;;;;14.23;2.72;;;5.60;1.00;;;;;;5053830;28;20173;-80
2021/01/18 10:32:49;;;;;;;5.87;2.23;;;5.70;1.00;;;;;;5041469;28;20547;-80
2021/01/18 10:35:29;;;;;;;4.88;2.60;;;5.70;1.00;;;;;;5040309;28;20425;-79
2021/01/18 10:38:16;;;;;;;8.93;2.90;;;5.80;1.00;;;;;;5034483;28;20157;-80
2021/01/18 10:40:58;;;;;;;6.10;3.17;;;5.90;1.00;;;;;;5030497;28;20180;-79
2021/01/18 10:43:26;;;;;;;6.82;3.47;;;6.00;1.00;;;;;;5012103;28;20416;-79
2021/01/18 10:45:51;;;;;;;3.73;2.63;;;6.10;1.00;;;;;;5012350;28;20268;-79
2021/01/18 10:48:24;;;;;;;8.33;2.60;;;6.20;1.00;;;;;;5012102;28;20574;-76
2021/01/18 10:50:55;;;;;;;7.23;3.03;;;6.20;1.00;;;;;;5011664;28;20335;-76
2021/01/18 10:53:27;;;;;;;9.07;3.30;;;6.30;1.00;;;;;;5021306;28;20427;-75
2021/01/18 10:56:15;;;;;;;5.50;2.90;;;6.20;1.00;;;;;;5015239;28;20545;-76
2021/01/18 10:58:41;;;;;;;7.43;3.03;;;6.30;1.00;;;;;;5030207;28;20521;-76
2021/01/18 11:01:16;;;;;;;6.70;3.77;;;;;;;;;;5031086;28;20522;-76
2021/01/18 11:03:43;;;;;;;7.90;3.40;;;;;;;;;;5012344;28;20414;-79
2021/01/18 11:06:13;;;;;;;5.40;3.40;;;6.20;1.00;;;;;;5011940;28;20616;-79
2021/01/18 11:08:39;;;;;;;4.60;2.23;;;;;;;;;;5015026;28;20447;-79
2021/01/18 11:11:21;;;;;;;6.93;3.40;;;6.00;1.00;;;;;;5030066;28;20762;-80
2021/01/18 11:13:47;;;;;;;8.77;3.75;;;;;;;;;;5028326;28;21112;-75
2021/01/18 11:16:15;;;;;;;5.97;3.53;;;5.70;1.00;;;;;;5023535;28;20543;-75
2021/01/18 11:18:41;;;;;;;3.53;2.78;;;;;;;;;;5034549;28;20179;-75
2021/01/18 11:21:07;;;;;;;9.60;3.60;;;5.70;1.00;;;;;;5033674;28;20263;-79
2021/01/18 11:23:33;;;;;;;6.63;2.53;;;;;;;;;;5048015;28;20569;-76
2021/01/18 11:26:00;;;;;;;10.02;2.97;;;;;;;;;;5039843;28;20199;-79
2021/01/18 11:28:26;;;;;;;6.43;3.13;;;;;;;;;;5038658;28;20523;-79
2021/01/18 11:30:52;;;;;;;2.95;2.17;;;;;;;;;;5033578;28;20384;-80
2021/01/18 11:33:19;;;;;;;9.90;3.90;;;;;;;;;;5033358;28;20673;-79
2021/01/18 11:35:45;;;;;;;9.23;3.75;;;;;;;;;;5034067;28;20259;-77
2021/01/18 11:38:12;;;;;;;4.35;3.08;;;;;;;;;;5033455;28;20202;-78
2021/01/18 11:40:38;;;;;;;9.75;3.20;;;;;;;;;;5040004;28;20192;-74
2021/01/18 11:43:04;;;;;;;12.40;4.03;;;;;;;;;;5036019;28;20182;-76
2021/01/18 11:45:30;;;;;;;6.20;3.47;;;;;;;;;;5048852;28;20504;-75
2021/01/18 11:47:57;;;;;;;5.00;3.13;;;5.80;1.00;;;;;;5041198;28;20470;-74
2021/01/18 11:50:23;;;;;;;7.22;3.45;;;5.90;1.00;;;;;;5052013;28;20160;-74
2021/01/18 11:52:54;;;;;;;6.40;3.70;;;5.90;1.00;;;;;;5052889;28;20557;-74
2021/01/18 11:55:20;;;;;;;5.13;2.20;;;6.10;1.00;;;;;;5053056;28;20398;-74
2021/01/18 11:57:47;;;;;;;8.37;3.60;;;;;;;;;;5045003;28;20788;-75
2021/01/18 12:00:21;;;;;;;6.23;3.13;;;6.20;1.00;;;;;;5039395;28;20711;-73
2021/01/18 12:02:47;;;;;;;2.97;1.77;;;6.20;1.00;;;;;;5052816;28;20464;-74
2021/01/18 12:05:13;;;;;;;5.03;3.40;;;6.10;1.00;;;;;;5053297;28;20398;-77
2021/01/18 12:07:39;;;;;;;8.57;3.60;;;;;;;;;;5044465;28;20651;-75
2021/01/18 12:10:06;;;;;;;7.80;3.57;;;6.00;1.00;;;;;;5042195;28;20426;-75
2021/01/18 12:12:35;;;;;;;10.43;4.50;;;6.10;1.00;;;;;;5044219;28;20422;-78
2021/01/18 12:15:01;;;;;;;7.10;3.70;;;;;;;;;;5032270;28;20792;-80
2021/01/18 12:17:27;;;;;;;6.77;3.30;;;;;;;;;;5038991;28;20439;-80
2021/01/18 12:19:53;;;;;;;4.93;3.10;;;6.50;1.00;;;;;;5039507;28;20906;-80
2021/01/18 12:22:22;;;;;;;28.80;14.90;;;6.50;1.00;;;;;;5053103;28;20411;-79
2021/01/18 12:24:48;;;;;;;5.53;3.33;;;;;;;;;;5043189;28;20692;-75
2021/01/18 12:27:14;;;;;;;9.63;3.10;;;;;;;;;;5033000;28;20458;-72
2021/01/18 12:29:40;;;;;;;10.70;4.30;;;6.70;1.00;;;;;;5043825;28;20410;-75
2021/01/18 12:32:06;;;;;;;4.40;2.70;;;;;;;;;;5045421;28;20962;-75
2021/01/18 12:34:34;;;;;;;5.23;3.43;;;6.70;1.00;;;;;;5046207;28;20186;-75
2021/01/18 12:37:00;;;;;;;5.53;3.60;;;6.80;1.00;;;;;;5055355;28;21214;-75
2021/01/18 12:39:26;;;;;;;46.93;18.07;;;;;;;;;;5042575;28;20414;-75
2021/01/18 12:41:52;;;;;;;8.97;3.37;;;;;;;;;;5038805;28;20188;-75
2021/01/18 12:44:18;;;;;;;7.63;3.37;;;;;;;;;;5036356;28;20853;-76
2021/01/18 12:46:46;;;;;;;10.73;3.87;;;;;;;;;;5044801;28;20955;-75
2021/01/18 12:49:12;;;;;;;26.70;9.17;;;7.40;1.00;;;;;;5046121;28;20457;-76
2021/01/18 12:51:37;;;;;;;6.70;3.10;;;7.50;1.00;;;;;;5056290;28;20426;-75
2021/01/18 12:54:03;;;;;;;6.60;2.93;;;;;;;;;;5054215;28;20164;-75
2021/01/18 12:56:29;;;;;;;19.90;7.00;;;;;;;;;;5049858;28;20176;-76
2021/01/18 12:58:56;;;;;;;7.43;3.73;;;7.50;1.00;;;;;;5040897;28;20450;-76
2021/01/18 13:01:30;;;;;;;11.73;3.53;;;7.60;1.00;;;;;;5050999;28;20422;-78
2021/01/18 13:03:56;;;;;;;5.00;3.50;;;;;;;;;;5049970;28;20981;-76
2021/01/18 13:06:37;;;;;;;5.00;2.67;;;7.40;1.00;;;;;;5050769;28;20897;-78
2021/01/18 13:09:05;;;;;;;21.17;3.23;;;7.40;1.00;;;;;;5041892;28;20982;-78
2021/01/18 13:11:31;;;;;;;5.40;3.27;;;7.60;1.00;;;;;;5047762;28;20426;-75
2021/01/18 13:13:57;;;;;;;3.60;2.90;;;;;;;;;;5052996;28;20434;-78
2021/01/18 13:16:24;;;;;;;19.07;7.40;;;7.70;1.00;;;;;;5045654;28;20538;-78
2021/01/18 13:18:49;;;;;;;9.53;2.50;;;7.60;1.00;;;;;;5043835;28;20469;-76
2021/01/18 13:21:16;;;;;;;6.13;2.97;;;7.90;1.00;;;;;;5050173;28;20930;-78
2021/01/18 13:23:44;;;;;;;6.33;2.93;;;;;;;;;;5048105;28;20180;-78
2021/01/18 13:26:10;;;;;;;6.10;2.93;;;;;;;;;;5043309;28;20470;-76
2021/01/18 13:28:36;;;;;;;8.73;4.23;;;7.80;1.00;;;;;;5048057;28;20460;-78
2021/01/18 13:31:01;;;;;;;8.47;2.73;;;7.70;1.00;;;;;;5050356;28;20430;-81
2021/01/18 13:33:27;;;;;;;4.77;2.07;;;;;;;;;;5051617;28;20180;-82
2021/01/18 13:36:15;;;;;;;6.97;2.63;;;7.50;1.00;;;;;;5041932;28;20230;-76
2021/01/18 13:38:47;;;;;;;5.07;2.60;;;7.40;1.00;;;;;;5044300;28;20410;-74
2021/01/18 13:41:16;;;;;;;2.70;1.90;;;7.30;1.00;;;;;;5055085;28;20406;-76
2021/01/18 13:43:52;;;;;;;6.30;2.70;;;7.20;1.00;;;;;;5048275;28;20497;-73
2021/01/18 13:46:24;;;;;;;6.23;2.70;;;7.20;1.00;;;;;;5056171;28;20769;-74
2021/01/18 13:48:51;;;;;;;8.57;3.07;;;7.10;1.00;;;;;;5055945;28;20495;-72
2021/01/18 13:51:34;;;;;;;3.90;2.30;;;7.10;1.00;;;;;;5035251;28;20737;-77
2021/01/18 13:54:34;;;;;;;6.40;2.53;;;7.00;1.00;;;;;;5035886;28;20894;-77
2021/01/18 13:57:34;;;;;;;3.97;2.23;;;7.00;1.00;;;;;;5041249;28;20407;-77
2021/01/18 14:00:34;;;;;;;7.53;3.63;;;6.90;1.00;;;;;;5041748;28;20434;-78
2021/01/18 14:03:04;;;;;;;3.20;1.80;;;6.80;1.00;;;;;;5036101;28;20422;-79
2021/01/18 14:05:58;;;;;;;4.87;1.90;;;;;;;;;;5047821;28;20963;-78
2021/01/18 14:08:59;;;;;;;7.13;2.60;;;6.50;1.00;;;;;;5056118;28;20434;-75
2021/01/18 14:11:37;;;;;;;9.93;2.80;;;6.50;1.00;;;;;;5050678;28;20413;-75
2021/01/18 14:14:03;;;;;;;7.70;2.90;;;6.50;1.00;;;;;;5040277;28;20765;-75
2021/01/18 14:16:29;;;;;;;3.63;2.37;;;;;;;;;;5054508;28;20425;-74
2021/01/18 14:18:55;;;;;;;10.03;2.30;;;6.40;1.00;;;;;;5041899;28;20430;-74
2021/01/18 14:21:28;;;;;;;3.17;2.00;;;6.40;1.00;;;;;;5036342;28;20387;-79
2021/01/18 14:24:08;;;;;;;4.47;2.40;;;6.30;1.00;;;;;;5038634;28;20180;-79
2021/01/18 14:30:16;;;;;;;7.83;3.27;;;6.30;1.00;;;;;;5035291;28;20450;-80
2021/01/18 14:33:34;;;;;;;56.80;22.00;;;6.40;1.00;;;;;;5039151;28;20406;-79
2021/01/18 14:36:07;;;;;;;9.00;4.47;;;6.40;1.00;;;;;;5055055;28;20425;-79
2021/01/18 14:38:34;;;;;;;9.37;5.47;;;6.30;1.00;;;;;;5048784;28;20418;-79
2021/01/18 14:41:52;;;;;;;7.60;2.57;;;6.30;1.00;;;;;;5055082;28;20878;-79
2021/01/18 14:44:58;;;;;;;2.40;1.90;;;6.20;1.00;;;;;;5051717;28;20529;-80
2021/01/18 14:47:55;;;;;;;6.53;3.95;;;6.10;1.00;;;;;;5045297;28;20501;-76
2021/01/18 14:50:35;;;;;;;3.33;2.10;;;6.10;1.00;;;;;;5020679;28;20179;-82
2021/01/18 14:53:05;;;;;;;11.20;4.50;;;;;;;;;;5032009;28;20415;-75
2021/01/18 14:55:34;;;;;;;48.97;21.50;;;6.10;1.00;;;;;;5015448;28;20427;-75
2021/01/18 14:58:04;;;;;;;8.83;3.80;;;6.10;1.00;;;;;;5030572;28;20874;-75
2021/01/18 15:00:35;;;;;;;2.60;1.70;;;6.10;1.00;;;;;;5012997;28;20739;-75
2021/01/18 15:03:04;;;;;;;18.47;7.30;;;6.10;1.00;;;;;;5013408;28;20464;-75
2021/01/18 15:05:31;;;;;;;16.10;5.67;;;6.00;1.00;;;;;;5012948;28;20401;-74
2021/01/18 15:08:04;;;;;;;10.10;2.97;;;6.10;1.00;;;;;;5013196;28;20614;-77
2021/01/18 15:10:34;;;;;;;5.80;2.30;;;6.10;1.00;;;;;;5012876;28;20399;-78
2021/01/18 15:13:05;;;;;;;10.73;1.93;;;6.10;1.00;;;;;;5017039;28;20450;-77
2021/01/18 15:16:06;;;;;;;2.80;2.30;;;6.00;1.00;;;;;;5003634;28;20416;-78
2021/01/18 15:19:04;;;;;;;5.63;2.90;;;6.10;1.00;;;;;;5030895;28;20903;-78
2021/01/18 15:21:35;;;;;;;4.73;1.83;;;6.10;1.00;;;;;;5032603;28;20392;-78
2021/01/18 15:24:05;;;;;;;8.70;3.50;;;6.10;1.00;;;;;;5031253;28;21016;-79
2021/01/18 15:27:04;;;;;;;8.57;2.77;;;6.10;1.00;;;;;;5032733;28;20470;-79
2021/01/18 15:29:34;;;;;;;30.67;12.53;;;6.10;1.00;;;;;;5036656;28;20925;-78
2021/01/18 15:32:28;;;;;;;5.07;2.33;;;6.10;1.00;;;;;;5052189;28;20436;-78
2021/01/18 15:35:35;;;;;;;6.17;3.00;;;6.00;1.00;;;;;;5049742;28;20747;-78
2021/01/18 15:38:04;;;;;;;7.00;3.67;;;6.00;1.00;;;;;;5034351;28;20418;-76
2021/01/18 15:40:34;;;;;;;3.20;2.17;;;6.00;1.00;;;;;;5034208;28;20411;-76
2021/01/18 15:43:05;;;;;;;24.17;7.63;;;5.90;1.00;;;;;;5035626;28;20886;-76
2021/01/18 15:45:31;;;;;;;25.50;7.60;;;5.90;1.00;;;;;;5051789;28;20179;-77
2021/01/18 15:47:57;;;;;;;23.03;10.17;;;;;;;;;;5053085;28;20260;-76
2021/01/18 15:50:23;;;;;;;19.48;6.60;;;5.90;1.00;;;;;;5039837;28;20415;-75